^^
Datos históricos de la estación: Murcia-Puente Tocinos
Diario Informe para Junio 21, 2021 Unidades:  Métrico    Ingés   Ambas
Diario Semanal Mensual Anual
  Máxima: Mínima: Promedio:
Temperatura: 30.6 °C 21.3 °C 26.1 °C
Punto de rocio: 15.1 °C 12.8 °C 13.9 °C
Humedad: 67% 35% 48%
Velocidad viento: 20.1km/h 2.2km/h 8.6km/h
Racha viento: 35.9km/h - -
Viento- - Sur
Presión: 1009.9 hPa 1006.5 hPa -
Precipitación: 0.0 mm    
 
 
Tabla de datos para Junio 21, 2021
Hora Temperatura Punto de rocio Presión Viento Velocidad viento Racha viento Humedad Intensidad lluvia(por hora) Nubes
00:04 24.2 °C 13.7 °C 1009.3 hPa Sur 7.6 km/h 11.3 km/h 52% 0.0 mm
00:09 24.2 °C 13.9 °C 1009.3 hPa SSE 7.2 km/h 11.3 km/h 52.9% 0.0 mm
00:14 24.1 °C 14 °C 1009.3 hPa SE 6.9 km/h 9.7 km/h 53.3% 0.0 mm
00:19 24 °C 14.1 °C 1009.3 hPa SSE 6.9 km/h 11.9 km/h 54% 0.0 mm
00:24 23.8 °C 14.3 °C 1009.3 hPa SE 6.9 km/h 11.1 km/h 55% 0.0 mm
00:29 23.7 °C 14.1 °C 1009.3 hPa SSE 7.3 km/h 12.2 km/h 55% 0.0 mm
00:34 23.6 °C 14.2 °C 1009.3 hPa Sur 7.6 km/h 13 km/h 55.6% 0.0 mm
00:39 23.4 °C 14.1 °C 1009.3 hPa Sur 7.6 km/h 11.3 km/h 56% 0.0 mm
00:44 23.4 °C 14.1 °C 1009.2 hPa SSE 7.6 km/h 11.1 km/h 56% 0.0 mm
00:49 23.3 °C 14.3 °C 1009.2 hPa SSE 7.2 km/h 11.1 km/h 57% 0.0 mm
00:54 23.3 °C 14.3 °C 1009.2 hPa SSE 6.9 km/h 11.3 km/h 57% 0.0 mm
00:59 23.3 °C 14.3 °C 1009.2 hPa Sur 6.9 km/h 11.1 km/h 57% 0.0 mm
01:04 23.3 °C 14.3 °C 1009.2 hPa SSE 6.9 km/h 11.9 km/h 56.8% 0.0 mm
01:09 23.3 °C 14.3 °C 1009.2 hPa SE 7.3 km/h 13 km/h 57% 0.0 mm
01:14 23.3 °C 14.5 °C 1009.0 hPa SE 7.6 km/h 11.1 km/h 57.7% 0.0 mm
01:19 23.2 °C 14.4 °C 1009.0 hPa Sur 7.2 km/h 11.3 km/h 57.8% 0.0 mm
01:24 23.2 °C 14.3 °C 1009.1 hPa OSO 6.9 km/h 8.4 km/h 57.3% 0.0 mm
01:29 23.2 °C 14.4 °C 1009.1 hPa Oeste 5.8 km/h 7.4 km/h 57.9% 0.0 mm
01:34 23.1 °C 14.4 °C 1009.1 hPa ONO 5 km/h 7.4 km/h 58% 0.0 mm
01:39 23.1 °C 14.4 °C 1009.1 hPa OSO 3.9 km/h 9.5 km/h 58% 0.0 mm
01:44 22.9 °C 14.4 °C 1008.9 hPa SO 3.2 km/h 9.7 km/h 58.7% 0.0 mm
01:49 22.9 °C 14.4 °C 1008.9 hPa SO 4.1 km/h 8 km/h 59% 0.0 mm
01:54 22.9 °C 14.4 °C 1008.9 hPa SO 4.7 km/h 7.4 km/h 58.8% 0.0 mm
01:59 22.8 °C 14.2 °C 1008.8 hPa SO 4.1 km/h 8 km/h 58.2% 0.0 mm
02:04 22.8 °C 14.4 °C 1008.8 hPa OSO 3.9 km/h 8 km/h 59% 0.0 mm
02:09 22.8 °C 14.4 °C 1008.9 hPa OSO 3.5 km/h 6.4 km/h 59.1% 0.0 mm
02:14 22.8 °C 14.6 °C 1008.9 hPa OSO 3.2 km/h 3.9 km/h 60% 0.0 mm
02:19 22.7 °C 14.8 °C 1008.9 hPa OSO 2.6 km/h 5.6 km/h 61.1% 0.0 mm
02:24 22.6 °C 15 °C 1008.9 hPa SO 2.2 km/h 7.6 km/h 62% 0.0 mm
02:29 22.4 °C 14.3 °C 1008.9 hPa Este 3.2 km/h 8 km/h 60.1% 0.0 mm
02:34 22.2 °C 13.8 °C 1008.9 hPa Este 3.9 km/h 8 km/h 59% 0.0 mm
02:39 22.1 °C 13.8 °C 1008.9 hPa Este 4.4 km/h 8 km/h 59.6% 0.0 mm
02:44 22 °C 14.1 °C 1008.9 hPa SE 4.6 km/h 8 km/h 60.9% 0.0 mm
02:49 21.9 °C 14.3 °C 1008.9 hPa SSE 4.2 km/h 8.4 km/h 62% 0.0 mm
02:54 22 °C 14.6 °C 1008.9 hPa SSO 3.9 km/h 8 km/h 63% 0.0 mm
02:59 22.1 °C 14.7 °C 1008.8 hPa SSO 4.4 km/h 7.4 km/h 63% 0.0 mm
03:04 22.1 °C 14.7 °C 1008.8 hPa Sur 4.7 km/h 8 km/h 63% 0.0 mm
03:09 22.2 °C 14.8 °C 1008.8 hPa SSE 4.1 km/h 8 km/h 63% 0.0 mm
03:14 22.2 °C 14.8 °C 1008.8 hPa ESE 3.9 km/h 8 km/h 63% 0.0 mm
03:19 22.1 °C 14.9 °C 1008.8 hPa ESE 3.9 km/h 8 km/h 63.8% 0.0 mm
03:24 21.9 °C 14.8 °C 1008.8 hPa ESE 3.9 km/h 5.8 km/h 64% 0.0 mm
03:29 21.8 °C 14.8 °C 1008.7 hPa SSE 3.5 km/h 7.4 km/h 64.2% 0.0 mm
03:34 21.7 °C 14.9 °C 1008.7 hPa SE 3.2 km/h 8 km/h 65% 0.0 mm
03:39 21.7 °C 14.8 °C 1008.7 hPa ESE 3.2 km/h 6.4 km/h 65% 0.0 mm
03:44 21.5 °C 14.7 °C 1008.7 hPa SE 3.2 km/h 8 km/h 65% 0.0 mm
03:49 21.4 °C 14.7 °C 1008.7 hPa SE 3.6 km/h 8 km/h 65.4% 0.0 mm
03:54 21.3 °C 14.7 °C 1008.7 hPa SSE 3.9 km/h 4.8 km/h 66% 0.0 mm
03:59 21.3 °C 14.7 °C 1008.7 hPa SE 2.8 km/h 4.8 km/h 66% 0.0 mm
04:04 21.3 °C 14.7 °C 1008.7 hPa Sur 2.2 km/h 5.6 km/h 66% 0.0 mm
04:09 21.3 °C 14.7 °C 1008.7 hPa ESE 2.6 km/h 5.6 km/h 66.1% 0.0 mm
04:14 21.3 °C 14.9 °C 1008.7 hPa SE 2.9 km/h 6.4 km/h 66.9% 0.0 mm
04:19 21.3 °C 14.7 °C 1008.7 hPa SE 3.5 km/h 7.4 km/h 66.1% 0.0 mm
04:24 21.3 °C 14.9 °C 1008.7 hPa Sur 3.9 km/h 8 km/h 67% 0.0 mm
04:29 21.3 °C 14.8 °C 1008.6 hPa SO 3.5 km/h 7.4 km/h 66.5% 0.0 mm
04:34 21.3 °C 14.7 °C 1008.6 hPa SSO 3.2 km/h 8 km/h 66% 0.0 mm
04:39 21.3 °C 14.6 °C 1008.7 hPa SSO 4.2 km/h 8 km/h 65.6% 0.0 mm
04:44 21.3 °C 14.5 °C 1008.7 hPa SSO 5 km/h 8.7 km/h 65% 0.0 mm
04:49 21.4 °C 14.3 °C 1008.7 hPa SSO 5.5 km/h 9.7 km/h 64% 0.0 mm
04:54 21.4 °C 14.3 °C 1008.7 hPa SSO 5.8 km/h 9.7 km/h 64% 0.0 mm
04:59 21.4 °C 14.3 °C 1008.6 hPa SSO 5.3 km/h 8 km/h 64% 0.0 mm
05:04 21.4 °C 14.3 °C 1008.6 hPa SSO 5 km/h 8 km/h 64% 0.0 mm
05:09 21.4 °C 14.1 °C 1008.6 hPa SO 4.8 km/h 8.7 km/h 63.2% 0.0 mm
05:14 21.4 °C 14 °C 1008.6 hPa SSO 4.7 km/h 9.7 km/h 62.4% 0.0 mm
05:19 21.5 °C 13.9 °C 1008.6 hPa SSO 4.6 km/h 9.7 km/h 62% 0.0 mm
05:24 21.6 °C 13.9 °C 1008.8 hPa SSO 4.7 km/h 9.5 km/h 61.5% 0.0 mm
05:29 21.7 °C 13.8 °C 1008.8 hPa SO 4.6 km/h 9.7 km/h 61% 0.0 mm
05:34 21.7 °C 13.8 °C 1008.8 hPa SO 4.7 km/h 9.7 km/h 61% 0.0 mm
05:39 21.7 °C 13.8 °C 1008.8 hPa SO 4.6 km/h 9.7 km/h 61% 0.0 mm
05:44 21.6 °C 13.7 °C 1008.8 hPa SO 4.7 km/h 11.1 km/h 60.6% 0.0 mm
05:49 21.7 °C 13.6 °C 1008.8 hPa SSO 5.7 km/h 11.3 km/h 60% 0.0 mm
05:54 21.7 °C 13.6 °C 1008.9 hPa SSO 6.5 km/h 11.9 km/h 60% 0.0 mm
05:59 21.8 °C 13.5 °C 1008.9 hPa SSO 6.8 km/h 11.3 km/h 59.2% 0.0 mm
06:04 21.8 °C 13.4 °C 1008.9 hPa SSO 6.9 km/h 11.3 km/h 59% 0.0 mm
06:09 21.8 °C 13.6 °C 1009.0 hPa Sur 6.6 km/h 9.7 km/h 59.6% 0.0 mm
06:14 21.8 °C 13.6 °C 1009.0 hPa Sur 6.5 km/h 9.5 km/h 60% 0.0 mm
06:19 21.7 °C 13.6 °C 1009.0 hPa SSO 5.6 km/h 8.4 km/h 60% 0.0 mm
06:24 21.6 °C 13.7 °C 1009.1 hPa Sur 5 km/h 9.5 km/h 60.7% 0.0 mm
06:29 21.6 °C 13.8 °C 1009.1 hPa Sur 5 km/h 9.7 km/h 61% 0.0 mm
06:34 21.6 °C 13.7 °C 1009.1 hPa SSO 5 km/h 9.7 km/h 60.9% 0.0 mm
06:39 21.6 °C 13.4 °C 1009.1 hPa SSO 5.5 km/h 11.1 km/h 60% 0.0 mm
06:44 21.5 °C 13.4 °C 1009.1 hPa Sur 5.8 km/h 11.3 km/h 60% 0.0 mm
06:49 21.5 °C 13.4 °C 1009.1 hPa Sur 6.2 km/h 10 km/h 60% 0.0 mm
06:54 21.6 °C 13.5 °C 1009.1 hPa Sur 6.5 km/h 9.7 km/h 60% 0.0 mm
06:59 21.6 °C 13.5 °C 1009.1 hPa Sur 6.1 km/h 9.7 km/h 60% 0.0 mm
07:04 21.6 °C 13.4 °C 1009.1 hPa SSE 5.8 km/h 8.4 km/h 59.7% 0.0 mm
07:09 21.7 °C 13.3 °C 1009.2 hPa SSE 5.1 km/h 8 km/h 59.1% 0.0 mm
07:14 21.7 °C 13.4 °C 1009.2 hPa SSE 4.6 km/h 8 km/h 59% 0.0 mm
07:19 21.8 °C 13.5 °C 1009.2 hPa SSE 4.2 km/h 8 km/h 59.3% 0.0 mm
07:24 21.8 °C 13.5 °C 1009.3 hPa Sur 3.9 km/h 8 km/h 59.2% 0.0 mm
07:29 21.9 °C 13.5 °C 1009.3 hPa SSO 3.9 km/h 8.4 km/h 59% 0.0 mm
07:34 21.9 °C 13.4 °C 1009.3 hPa Sur 3.9 km/h 8.4 km/h 58.5% 0.0 mm
07:39 21.9 °C 13.5 °C 1009.4 hPa Sur 4.5 km/h 10 km/h 58.9% 0.0 mm
07:44 22 °C 13.3 °C 1009.4 hPa Sur 5 km/h 11.1 km/h 58% 0.0 mm
07:49 22.1 °C 13.2 °C 1009.4 hPa SSO 6.1 km/h 14 km/h 57.1% 0.0 mm
07:54 22.2 °C 13.1 °C 1009.6 hPa Sur 6.9 km/h 14.8 km/h 56.5% 0.0 mm
07:59 22.2 °C 13 °C 1009.6 hPa Sur 8 km/h 14.5 km/h 56% 0.0 mm
08:04 22.3 °C 13.1 °C 1009.6 hPa Sur 8.7 km/h 12.9 km/h 56% 0.0 mm
08:09 22.4 °C 13.2 °C 1009.7 hPa SSO 8.5 km/h 16.1 km/h 56% 0.0 mm
08:14 22.5 °C 13.3 °C 1009.7 hPa SSO 8.4 km/h 16.7 km/h 55.9% 0.0 mm
08:19 22.7 °C 13.4 °C 1009.7 hPa SO 7.4 km/h 16.1 km/h 55.8% 0.0 mm
08:24 22.8 °C 13.2 °C 1009.8 hPa SSO 6.9 km/h 13.7 km/h 54.9% 0.0 mm
08:29 22.9 °C 13.1 °C 1009.8 hPa SSO 7.3 km/h 14.5 km/h 54.1% 0.0 mm
08:34 23 °C 13.2 °C 1009.8 hPa SSO 7.6 km/h 16.7 km/h 54% 0.0 mm
08:39 23.2 °C 13.3 °C 1009.8 hPa SO 8.2 km/h 16.7 km/h 53.9% 0.0 mm
08:44 23.3 °C 13.2 °C 1009.7 hPa SSO 8.7 km/h 16.7 km/h 53% 0.0 mm
08:49 23.3 °C 13.2 °C 1009.7 hPa OSO 8.5 km/h 16.1 km/h 53% 0.0 mm
08:54 23.4 °C 13.3 °C 1009.7 hPa SSO 8.4 km/h 13 km/h 53% 0.0 mm
08:59 23.6 °C 13.4 °C 1009.7 hPa SO 8.4 km/h 13.7 km/h 53% 0.0 mm
09:04 23.7 °C 13.6 °C 1009.7 hPa SO 8.4 km/h 14.5 km/h 53% 0.0 mm
09:09 23.8 °C 13.7 °C 1009.8 hPa SO 7.9 km/h 12.9 km/h 53% 0.0 mm
09:14 23.9 °C 13.7 °C 1009.8 hPa SO 7.6 km/h 13 km/h 52.9% 0.0 mm
09:19 24.1 °C 13.8 °C 1009.8 hPa SO 7.6 km/h 13 km/h 52.6% 0.0 mm
09:24 24.3 °C 13.8 °C 1009.8 hPa OSO 7.6 km/h 13.7 km/h 52% 0.0 mm
09:29 24.4 °C 13.9 °C 1009.8 hPa OSO 6.9 km/h 14.5 km/h 52% 0.0 mm
09:34 24.6 °C 13.8 °C 1009.8 hPa OSO 6.5 km/h 20.9 km/h 51.1% 0.0 mm
09:39 24.8 °C 13.6 °C 1009.9 hPa Oeste 7.9 km/h 20.9 km/h 49.9% 0.0 mm
09:44 24.9 °C 13.4 °C 1009.9 hPa Oeste 8.7 km/h 22.5 km/h 48.7% 0.0 mm
09:49 25.1 °C 13.3 °C 1009.9 hPa Oeste 10.8 km/h 22.5 km/h 48% 0.0 mm
09:54 25.1 °C 13.4 °C 1009.9 hPa OSO 11.9 km/h 20.9 km/h 48.1% 0.0 mm
09:59 25.2 °C 13.4 °C 1009.9 hPa Oeste 12.6 km/h 24.1 km/h 48% 0.0 mm
10:04 25.2 °C 13.3 °C 1009.9 hPa ONO 13 km/h 24.1 km/h 47.5% 0.0 mm
10:09 25.3 °C 13.2 °C 1009.9 hPa Oeste 13 km/h 20.9 km/h 47% 0.0 mm
10:14 25.4 °C 13.3 °C 1009.8 hPa ONO 13 km/h 20.9 km/h 47% 0.0 mm
10:19 25.6 °C 13.5 °C 1009.8 hPa OSO 11.3 km/h 19.3 km/h 47.1% 0.0 mm
10:24 25.7 °C 13.2 °C 1009.8 hPa OSO 10 km/h 19.3 km/h 46% 0.0 mm
10:29 25.8 °C 13.3 °C 1009.8 hPa Oeste 10 km/h 19.3 km/h 45.9% 0.0 mm
10:34 26 °C 13.3 °C 1009.8 hPa SO 10 km/h 17.2 km/h 45.4% 0.0 mm
10:39 26.1 °C 13.2 °C 1009.8 hPa OSO 8.7 km/h 19.8 km/h 45% 0.0 mm
10:44 25.9 °C 13.1 °C 1009.8 hPa OSO 7.6 km/h 20.4 km/h 45% 0.0 mm
10:49 25.8 °C 13.1 °C 1009.8 hPa OSO 10 km/h 21.7 km/h 45.5% 0.0 mm
10:54 25.9 °C 13.1 °C 1009.8 hPa Oeste 11.9 km/h 22.5 km/h 45.1% 0.0 mm
10:59 26 °C 13.2 °C 1009.6 hPa OSO 10.3 km/h 22.5 km/h 45% 0.0 mm
11:04 26.1 °C 13.2 °C 1009.6 hPa SSO 9.5 km/h 17.2 km/h 44.9% 0.0 mm
11:09 26.2 °C 13.1 °C 1009.6 hPa SO 8.8 km/h 17.7 km/h 44.4% 0.0 mm
11:14 26.3 °C 13.1 °C 1009.6 hPa OSO 8.4 km/h 17.7 km/h 44% 0.0 mm
11:19 26.3 °C 13 °C 1009.6 hPa NO 8.4 km/h 16.1 km/h 43.7% 0.0 mm
11:24 26.5 °C 13.1 °C 1009.6 hPa SE 8.4 km/h 16.7 km/h 43.6% 0.0 mm
11:29 26.7 °C 13.1 °C 1009.4 hPa OSO 7.5 km/h 16.1 km/h 43% 0.0 mm
11:34 26.8 °C 13.2 °C 1009.4 hPa ONO 6.9 km/h 14.5 km/h 43% 0.0 mm
11:39 26.9 °C 13 °C 1009.4 hPa ONO 6.3 km/h 11.9 km/h 42.1% 0.0 mm
11:44 27.1 °C 13 °C 1009.4 hPa Oeste 5.8 km/h 14.8 km/h 41.8% 0.0 mm
11:49 27.2 °C 12.8 °C 1009.4 hPa OSO 6.2 km/h 14.8 km/h 41.2% 0.0 mm
11:54 27.3 °C 13 °C 1009.4 hPa SO 6.4 km/h 11.1 km/h 41.4% 0.0 mm
11:59 27.4 °C 13.1 °C 1009.4 hPa ONO 6.1 km/h 11.9 km/h 41.2% 0.0 mm
12:04 27.7 °C 13 °C 1009.4 hPa NO 5.8 km/h 14 km/h 40.5% 0.0 mm
12:09 27.7 °C 12.8 °C 1009.4 hPa OSO 6.1 km/h 15.6 km/h 40% 0.0 mm
12:14 27.6 °C 13.1 °C 1009.4 hPa North 6.5 km/h 16.1 km/h 40.9% 0.0 mm
12:19 27.8 °C 13.3 °C 1009.4 hPa NNE 5.6 km/h 9.7 km/h 40.7% 0.0 mm
12:24 28.1 °C 13.3 °C 1009.4 hPa North 5 km/h 12.2 km/h 40% 0.0 mm
12:29 28.2 °C 13.1 °C 1009.3 hPa Oeste 5.9 km/h 14.8 km/h 39.3% 0.0 mm
12:34 28.1 °C 13.1 °C 1009.3 hPa ONO 6.5 km/h 14.5 km/h 39.7% 0.0 mm
12:39 28.1 °C 13.1 °C 1009.3 hPa NO 6.8 km/h 12.9 km/h 39.8% 0.0 mm
12:44 28.2 °C 13 °C 1009.2 hPa SSO 6.9 km/h 10 km/h 39.2% 0.0 mm
12:49 28.3 °C 13.2 °C 1009.2 hPa ESE 6.3 km/h 13 km/h 39.5% 0.0 mm
12:54 28.5 °C 13.3 °C 1009.2 hPa Este 5.8 km/h 13.7 km/h 39.2% 0.0 mm
12:59 28.6 °C 13.6 °C 1009.0 hPa ENE 6.5 km/h 9.5 km/h 39.8% 0.0 mm
13:04 28.9 °C 13.4 °C 1009.0 hPa ENE 6.9 km/h 9.7 km/h 38.6% 0.0 mm
13:09 29.2 °C 13.4 °C 1009.0 hPa ENE 5.5 km/h 11.1 km/h 38% 0.0 mm
13:14 28.9 °C 13.5 °C 1008.9 hPa NE 4.7 km/h 9.5 km/h 38.9% 0.0 mm
13:19 29.1 °C 13.7 °C 1008.9 hPa Este 5.3 km/h 10.3 km/h 39% 0.0 mm
13:24 29.3 °C 13.3 °C 1008.9 hPa Sur 5.8 km/h 13 km/h 37.6% 0.0 mm
13:29 29.3 °C 13.2 °C 1008.8 hPa SO 6.2 km/h 12.9 km/h 37.1% 0.0 mm
13:34 29.3 °C 13.2 °C 1008.8 hPa OSO 6.5 km/h 11.9 km/h 37.2% 0.0 mm
13:39 29.3 °C 13.1 °C 1008.8 hPa SO 6.5 km/h 13 km/h 37% 0.0 mm
13:44 29.4 °C 13.2 °C 1008.7 hPa ONO 6.4 km/h 11.9 km/h 37% 0.0 mm
13:49 29.6 °C 13.4 °C 1008.7 hPa Sur 5 km/h 11.9 km/h 37% 0.0 mm
13:54 29.7 °C 13.4 °C 1008.7 hPa Oeste 3.9 km/h 11.3 km/h 37% 0.0 mm
13:59 29.8 °C 13.5 °C 1008.4 hPa North 4.5 km/h 11.3 km/h 36.9% 0.0 mm
14:04 29.8 °C 13.4 °C 1008.4 hPa SE 5 km/h 13.7 km/h 36.5% 0.0 mm
14:09 29.8 °C 13.6 °C 1008.4 hPa ENE 5.8 km/h 11.9 km/h 37.1% 0.0 mm
14:14 30 °C 13.5 °C 1008.3 hPa NNO 6.5 km/h 15.6 km/h 36.4% 0.0 mm
14:19 29.9 °C 13.2 °C 1008.3 hPa SE 7.6 km/h 16.1 km/h 36% 0.0 mm
14:24 30.1 °C 13.4 °C 1008.3 hPa SSE 8.4 km/h 14.5 km/h 36% 0.0 mm
14:29 30.3 °C 13.2 °C 1008.2 hPa SSE 7.2 km/h 14.8 km/h 35.3% 0.0 mm
14:34 30.2 °C 13 °C 1008.2 hPa SO 6.4 km/h 13 km/h 35% 0.0 mm
14:39 30.2 °C 14.7 °C 1008.2 hPa ESE 7.7 km/h 27.8 km/h 38.9% 0.0 mm
14:44 30.2 °C 15 °C 1007.9 hPa Este 8.4 km/h 27.4 km/h 39.7% 0.0 mm
14:49 30 °C 15 °C 1007.9 hPa ESE 12.7 km/h 25.9 km/h 40.1% 0.0 mm
14:54 30.2 °C 15.1 °C 1007.9 hPa Este 15.6 km/h 24.1 km/h 40% 0.0 mm
14:59 30.3 °C 15 °C 1007.8 hPa ESE 13.5 km/h 22.5 km/h 39.3% 0.0 mm
15:04 30.4 °C 14.7 °C 1007.8 hPa SE 12.2 km/h 25.6 km/h 38.7% 0.0 mm
15:09 30.3 °C 14.7 °C 1007.8 hPa ESE 15.1 km/h 29.6 km/h 38.8% 0.0 mm
15:14 30.5 °C 14.7 °C 1007.8 hPa ESE 17.2 km/h 30.9 km/h 38.4% 0.0 mm
15:19 30.3 °C 14.4 °C 1007.8 hPa ESE 16.7 km/h 32.2 km/h 38% 0.0 mm
15:24 30.2 °C 14.4 °C 1007.8 hPa ESE 16.4 km/h 24.1 km/h 38.2% 0.0 mm
15:29 30.2 °C 14.3 °C 1007.7 hPa SSE 16.4 km/h 30.6 km/h 38% 0.0 mm
15:34 30.2 °C 14.3 °C 1007.7 hPa SE 16.4 km/h 26.2 km/h 38% 0.0 mm
15:39 30.2 °C 14.2 °C 1007.7 hPa SSE 16.9 km/h 27.8 km/h 37.7% 0.0 mm
15:44 30.2 °C 14.3 °C 1007.4 hPa SE 17.2 km/h 29.6 km/h 38% 0.0 mm
15:49 30.1 °C 14.3 °C 1007.4 hPa SE 17.7 km/h 29 km/h 38.1% 0.0 mm
15:54 30.2 °C 14.4 °C 1007.4 hPa ESE 18 km/h 32.3 km/h 38.3% 0.0 mm
15:59 29.9 °C 14.3 °C 1007.3 hPa ESE 19.4 km/h 33.8 km/h 38.5% 0.0 mm
16:04 30.1 °C 14.6 °C 1007.3 hPa ESE 20.1 km/h 33.8 km/h 39% 0.0 mm
16:09 30.3 °C 14.5 °C 1007.3 hPa SE 18.3 km/h 29 km/h 38.2% 0.0 mm
16:14 30.1 °C 14.5 °C 1007.2 hPa SE 17.2 km/h 29.6 km/h 38.7% 0.0 mm
16:19 30.2 °C 14.7 °C 1007.2 hPa ESE 17.2 km/h 29.1 km/h 39% 0.0 mm
16:24 30.2 °C 14.7 °C 1007.2 hPa ESE 17.2 km/h 35.2 km/h 39% 0.0 mm
16:29 29.9 °C 14.6 °C 1007.1 hPa ESE 18.8 km/h 35.4 km/h 39.6% 0.0 mm
16:34 29.9 °C 14.7 °C 1007.1 hPa ESE 19.8 km/h 35.9 km/h 39.8% 0.0 mm
16:39 30 °C 14.7 °C 1007.1 hPa ESE 19 km/h 33.5 km/h 39.5% 0.0 mm
16:44 29.9 °C 14.8 °C 1007.1 hPa ESE 18.3 km/h 23.7 km/h 39.8% 0.0 mm
16:49 30 °C 14.5 °C 1007.1 hPa ESE 17.7 km/h 30.6 km/h 39% 0.0 mm
16:54 29.9 °C 14.5 °C 1007.1 hPa ESE 17.2 km/h 31.5 km/h 39% 0.0 mm
16:59 29.9 °C 14.4 °C 1007.1 hPa ESE 17.2 km/h 32.2 km/h 39% 0.0 mm
17:04 30 °C 14.4 °C 1007.1 hPa ESE 17.2 km/h 32.2 km/h 38.7% 0.0 mm
17:09 30.1 °C 14.4 °C 1007.1 hPa SE 16.7 km/h 27.4 km/h 38.5% 0.0 mm
17:14 30.3 °C 14.4 °C 1007.0 hPa SE 16.4 km/h 24.1 km/h 37.9% 0.0 mm
17:19 30.3 °C 14.4 °C 1007.0 hPa ESE 15.1 km/h 31.5 km/h 38% 0.0 mm
17:24 30.2 °C 14.3 °C 1007.0 hPa ESE 14 km/h 29.6 km/h 38% 0.0 mm
17:29 30.2 °C 14.4 °C 1006.8 hPa SE 16.5 km/h 28.2 km/h 38.3% 0.0 mm
17:34 30 °C 14.5 °C 1006.8 hPa ESE 18.4 km/h 31.7 km/h 39.1% 0.0 mm
17:39 29.9 °C 14.8 °C 1006.8 hPa ESE 18.8 km/h 32.2 km/h 39.8% 0.0 mm
17:44 30.1 °C 14.8 °C 1006.8 hPa SE 19 km/h 27.4 km/h 39.5% 0.0 mm
17:49 30.4 °C 14.9 °C 1006.8 hPa ESE 16.4 km/h 24.1 km/h 39% 0.0 mm
17:54 30.4 °C 14.9 °C 1006.8 hPa ESE 14.8 km/h 28.2 km/h 39% 0.0 mm
17:59 30.3 °C 14.8 °C 1006.8 hPa SE 15.6 km/h 29.6 km/h 39% 0.0 mm
18:04 30.3 °C 14.7 °C 1006.8 hPa SE 16.1 km/h 29 km/h 38.6% 0.0 mm
18:09 30.5 °C 14.6 °C 1006.8 hPa ESE 14.8 km/h 25.9 km/h 38.2% 0.0 mm
18:14 30.6 °C 14.6 °C 1006.7 hPa SE 14 km/h 30.6 km/h 38% 0.0 mm
18:19 30.6 °C 14.6 °C 1006.7 hPa SE 15.9 km/h 26.2 km/h 38% 0.0 mm
18:24 30.4 °C 14.6 °C 1006.7 hPa SE 17.2 km/h 25.9 km/h 38.3% 0.0 mm
18:29 30.4 °C 14.6 °C 1006.6 hPa SE 15.2 km/h 25.9 km/h 38.1% 0.0 mm
18:34 30.6 °C 14.6 °C 1006.6 hPa SE 14 km/h 25.9 km/h 37.9% 0.0 mm
18:39 30.6 °C 14.6 °C 1006.7 hPa SE 14 km/h 23.3 km/h 37.8% 0.0 mm
18:44 30.4 °C 14.5 °C 1006.7 hPa SE 14 km/h 24.1 km/h 37.9% 0.0 mm
18:49 30.5 °C 14.4 °C 1006.7 hPa SE 14.5 km/h 25.9 km/h 37.5% 0.0 mm
18:54 30.4 °C 14.3 °C 1006.7 hPa SE 14.8 km/h 25.7 km/h 37.5% 0.0 mm
18:59 30.4 °C 14.5 °C 1006.5 hPa ESE 13.7 km/h 22.5 km/h 38% 0.0 mm
19:04 30.4 °C 14.5 °C 1006.5 hPa SE 13 km/h 24.1 km/h 38% 0.0 mm
19:09 30.2 °C 14.4 °C 1006.6 hPa ESE 14.1 km/h 24.1 km/h 38% 0.0 mm
19:14 30.2 °C 14.3 °C 1006.6 hPa ESE 14.8 km/h 18.5 km/h 38% 0.0 mm
19:19 30.2 °C 14.3 °C 1006.6 hPa ESE 13.8 km/h 27.8 km/h 38% 0.0 mm
19:24 30 °C 14.3 °C 1006.6 hPa ESE 13 km/h 27.4 km/h 38.5% 0.0 mm
19:29 29.8 °C 14.3 °C 1006.6 hPa ESE 15.9 km/h 29.6 km/h 39% 0.0 mm
19:34 29.7 °C 14.3 °C 1006.6 hPa ESE 18 km/h 29 km/h 39% 0.0 mm
19:39 29.7 °C 14.3 °C 1006.6 hPa ESE 16.8 km/h 26.2 km/h 39% 0.0 mm
19:44 29.7 °C 14.3 °C 1006.6 hPa SE 16.1 km/h 26.2 km/h 39% 0.0 mm
19:49 29.6 °C 14.2 °C 1006.6 hPa ESE 15.8 km/h 25.9 km/h 39% 0.0 mm
19:54 29.5 °C 14.1 °C 1006.7 hPa ESE 15.6 km/h 24.5 km/h 39% 0.0 mm
19:59 29.5 °C 14.1 °C 1006.7 hPa ESE 14.4 km/h 20.4 km/h 39% 0.0 mm
20:04 29.6 °C 14.2 °C 1006.7 hPa ESE 13.7 km/h 20.9 km/h 39% 0.0 mm
20:09 29.6 °C 14.2 °C 1007.0 hPa ESE 11.8 km/h 19.3 km/h 39% 0.0 mm
20:14 29.6 °C 14.2 °C 1007.0 hPa ESE 10.3 km/h 19.3 km/h 39% 0.0 mm
20:19 29.6 °C 14.1 °C 1007.0 hPa SE 10.1 km/h 17.7 km/h 38.9% 0.0 mm
20:24 29.5 °C 14.1 °C 1007.0 hPa SE 10 km/h 17.7 km/h 38.9% 0.0 mm
20:29 29.5 °C 13.9 °C 1007.0 hPa ESE 9.7 km/h 16.4 km/h 38.5% 0.0 mm
20:34 29.4 °C 13.9 °C 1007.0 hPa SE 9.5 km/h 17.2 km/h 38.9% 0.0 mm
20:39 29.3 °C 13.9 °C 1007.2 hPa ESE 10 km/h 17.7 km/h 39% 0.0 mm
20:44 29.2 °C 14 °C 1007.2 hPa ESE 10.3 km/h 14.8 km/h 39.3% 0.0 mm
20:49 29.1 °C 14.1 °C 1007.2 hPa ESE 9.4 km/h 15.6 km/h 40% 0.0 mm
20:54 28.9 °C 13.9 °C 1007.4 hPa Este 8.7 km/h 14.8 km/h 40% 0.0 mm
20:59 28.7 °C 14 °C 1007.4 hPa ESE 8.7 km/h 14.5 km/h 40.5% 0.0 mm
21:04 28.7 °C 14.2 °C 1007.4 hPa ESE 8.7 km/h 12.9 km/h 41% 0.0 mm
21:09 28.7 °C 14.1 °C 1007.5 hPa ESE 7.7 km/h 11.1 km/h 41% 0.0 mm
21:14 28.6 °C 14 °C 1007.5 hPa ESE 6.9 km/h 11.3 km/h 41% 0.0 mm
21:19 28.4 °C 14 °C 1007.5 hPa ESE 6.6 km/h 11.1 km/h 41.4% 0.0 mm
21:24 28.3 °C 14.1 °C 1007.7 hPa Este 6.4 km/h 8.4 km/h 41.9% 0.0 mm
21:29 28.2 °C 14 °C 1007.7 hPa Este 6.1 km/h 9.5 km/h 41.8% 0.0 mm
21:34 28.1 °C 14 °C 1007.7 hPa ESE 5.8 km/h 10 km/h 42% 0.0 mm
21:39 28 °C 14.2 °C 1007.9 hPa ESE 5.8 km/h 9.7 km/h 42.8% 0.0 mm
21:44 27.8 °C 14.2 °C 1007.9 hPa ESE 5.8 km/h 11.1 km/h 43.3% 0.0 mm
21:49 27.8 °C 14.4 °C 1007.9 hPa SE 6.2 km/h 11.3 km/h 44% 0.0 mm
21:54 27.7 °C 14.3 °C 1008.1 hPa SE 6.5 km/h 9.7 km/h 44% 0.0 mm
21:59 27.7 °C 14.3 °C 1008.1 hPa ESE 5.5 km/h 7.4 km/h 43.9% 0.0 mm
22:04 27.7 °C 14.3 °C 1008.1 hPa ESE 5 km/h 8 km/h 43.8% 0.0 mm
22:09 27.8 °C 14 °C 1008.4 hPa SE 4.8 km/h 9.3 km/h 43% 0.0 mm
22:14 27.8 °C 14.1 °C 1008.4 hPa SE 4.7 km/h 9.7 km/h 43% 0.0 mm
22:19 27.8 °C 13.6 °C 1008.4 hPa SSO 4.6 km/h 9.5 km/h 41.7% 0.0 mm
22:24 27.8 °C 13.3 °C 1008.6 hPa SO 4.7 km/h 13 km/h 40.8% 0.0 mm
22:29 27.8 °C 13 °C 1008.6 hPa SSO 5.7 km/h 11.1 km/h 40% 0.0 mm
22:34 27.8 °C 13 °C 1008.6 hPa Sur 6.4 km/h 10 km/h 40.1% 0.0 mm
22:39 27.8 °C 13.2 °C 1008.9 hPa Sur 6.1 km/h 9.3 km/h 40.7% 0.0 mm
22:44 27.7 °C 13.2 °C 1008.9 hPa SO 5.8 km/h 11.1 km/h 40.9% 0.0 mm
22:49 27.6 °C 13.2 °C 1008.9 hPa SO 6.2 km/h 11.3 km/h 41% 0.0 mm
22:54 27.4 °C 13 °C 1009.1 hPa SO 6.5 km/h 13 km/h 41% 0.0 mm
22:59 27.3 °C 13 °C 1009.1 hPa SO 7.6 km/h 13 km/h 41.4% 0.0 mm
23:04 27.1 °C 13.1 °C 1009.1 hPa SO 8.4 km/h 13 km/h 42% 0.0 mm
23:09 26.9 °C 13.1 °C 1009.3 hPa SSO 7.5 km/h 11.1 km/h 42.4% 0.0 mm
23:14 26.8 °C 13.2 °C 1009.3 hPa SO 6.9 km/h 9.3 km/h 43% 0.0 mm
23:19 26.7 °C 13.2 °C 1009.3 hPa SO 5.7 km/h 9.7 km/h 43.4% 0.0 mm
23:24 26.6 °C 13.3 °C 1009.3 hPa SO 5 km/h 11.1 km/h 44% 0.0 mm
23:29 26.4 °C 13.3 °C 1009.3 hPa Oeste 5.9 km/h 16.7 km/h 44.4% 0.0 mm
23:34 26.2 °C 13.8 °C 1009.3 hPa ONO 6.4 km/h 18.5 km/h 46.5% 0.0 mm
23:39 26.1 °C 14.2 °C 1009.7 hPa Oeste 8.2 km/h 19.3 km/h 48.1% 0.0 mm
23:44 25.9 °C 14.7 °C 1009.7 hPa NO 9.5 km/h 11.1 km/h 50% 0.0 mm
23:49 25.9 °C 15 °C 1009.7 hPa ONO 7.6 km/h 11.3 km/h 51% 0.0 mm
23:54 25.8 °C 14.8 °C 1009.9 hPa ONO 6.4 km/h 11.1 km/h 50.8% 0.0 mm
23:59 25.8 °C 13.8 °C 1009.9 hPa ONO 6 km/h 16.7 km/h 47.5% 0.0 mm
Murcia-Puente Tocinos, España
Compliments of Weather Underground - 3 mb

La estación de MeteoMurcia.com, publica sus datos en los siguientes proyectos:

Weather Underground PWS IMURCIAP2 Meteoclimatic www.awekas.at

W3Counter
Web Analytics